Home > Products > Valid Products > TAF

000
FTUS43 KUNR 311700
TAFRAP
TAF
KRAP 311720Z 3118/0118 16020G30KT P6SM SCT010
     FM312000 27027G37KT P6SM SCT050
     FM010000 15011KT P6SM SCT150=



000
FTUS43 KUNR 311700
TAFGCC
TAF
KGCC 311720Z 3118/0118 18025G35KT P6SM SCT150
     FM010100 19015KT P6SM SKC=



000
FTUS43 KUNR 311400 AAA
TAFRAP
TAF AMD
KRAP 311400Z 3114/0112 18017KT P6SM OVC003
     FM311600 16020G30KT P6SM BKN010
     FM311800 27028G38KT P6SM SCT250
     FM010000 15011KT P6SM SKC=



000
FTUS43 KUNR 311200 AAA
TAFGCC
TAF AMD
KGCC 311255Z 3113/0112 16020G30KT P6SM SCT008 BKN250
     FM311600 17030G40KT P6SM SCT250
     FM312200 18020G30KT P6SM SCT250
     FM010100 19015KT P6SM SKC=



000
FTUS43 KUNR 311100
TAFGCC
TAF
KGCC 311120Z 3112/0112 16020G30KT P6SM BKN008
     FM311600 17030G40KT P6SM SCT250
     FM312200 18020G30KT P6SM SCT250
     FM010100 19015KT P6SM SKC=



000
FTUS43 KUNR 311100
TAFRAP
TAF
KRAP 311120Z 3112/0112 16011KT P6SM OVC003
     FM311400 16015KT P6SM OVC005
     FM311600 16020G30KT P6SM BKN250
     FM312000 27028G38KT P6SM SCT250
     FM010000 15011KT P6SM SKC=



000
FTUS43 KUNR 311000 AAE
TAFRAP
TAF AMD
KRAP 311011Z 3110/0106 15011KT 3SM BR OVC002
     FM311400 16015KT P6SM OVC005
     FM311600 16024G34KT P6SM BKN200=



000
FTUS43 KUNR 310900 AAD
TAFRAP
TAF AMD
KRAP 310935Z 3110/0106 15011KT 1SM BR VV002
     FM311400 16015KT P6SM OVC005
     FM311600 16024G34KT P6SM BKN200=



000
FTUS43 KUNR 310900 AAB
TAFGCC
TAF AMD
KGCC 310915Z 3109/0106 16020KT P6SM SCT006 BKN250
     FM311100 18020G30KT 5SM BR OVC006
     FM311600 18030G40KT P6SM BKN200=



000
FTUS43 KUNR 310800 AAC
TAFRAP
TAF AMD
KRAP 310846Z 3109/0106 15011KT 2SM BR OVC002
     FM311400 15015KT P6SM OVC005
     FM311600 16024G34KT P6SM BKN200=



000
FTUS43 KUNR 310800 AAB
TAFRAP
TAF AMD
KRAP 310802Z 3108/0106 14011KT 4SM BR OVC003
     FM311400 15015KT P6SM OVC005
     FM311600 16024G34KT P6SM BKN200=



000
FTUS43 KUNR 310600 AAA
TAFRAP
TAF AMD
KRAP 310649Z 3107/0106 15008KT P6SM OVC005
     FM311400 15015KT P6SM OVC005
     FM311600 16024G34KT P6SM BKN200=



000
FTUS43 KUNR 310600 AAA
TAFGCC
TAF AMD
KGCC 310625Z 3106/0106 17017KT P6SM SCT200
     FM310900 17017KT 5SM BR BKN008
     FM311000 18020G30KT 5SM BR OVC008
     FM311600 18030G40KT P6SM BKN200=



000
FTUS43 KUNR 310500
TAFRAP
TAF
KRAP 310520Z 3106/0106 05008KT 5SM BR OVC015
     FM310800 04008KT 1SM BR OVC003
     FM311400 15015KT P6SM OVC005
     FM311600 16024G34KT P6SM BKN200=



000
FTUS43 KUNR 310500
TAFGCC
TAF
KGCC 310520Z 3106/0106 18007KT P6SM SCT200
      TEMPO 3106/3110 5SM BR BKN008
     FM311000 18020G30KT 5SM BR OVC008
     FM311600 18030G40KT P6SM BKN200=



000
FTUS43 KUNR 302300
TAFRAP
TAF
KRAP 302320Z 3100/3124 03012KT P6SM SKC
      TEMPO 3103/3105 1SM BR OVC003
     FM310500 04008KT 1SM BR OVC003
     FM311400 15015KT P6SM OVC005
     FM311600 16024G34KT P6SM BKN200=



000
FTUS43 KUNR 302300
TAFGCC
TAF
KGCC 302320Z 3100/3124 04008KT P6SM SCT200
      TEMPO 3106/3109 3SM BR BKN004
     FM310900 18020G30KT 3SM BR OVC004
     FM311800 18028G38KT P6SM BKN200=



000
FTUS43 KUNR 301900 AAA
TAFRAP
TAF AMD
KRAP 301906Z 3019/3118 36014KT P6SM SKC
     FM302300 01013KT P6SM SCT015
     FM310100 05011KT P6SM BKN010
     FM310300 07008KT 1SM BR OVC003
     FM311400 15015KT P6SM OVC005=



000
FTUS43 KUNR 301700
TAFGCC
TAF
KGCC 301720Z 3018/3118 27010KT P6SM SKC
     FM310000 04008KT P6SM SCT010
     FM310900 18020G30KT 3SM BR OVC004=



000
FTUS43 KUNR 301700
TAFRAP
TAF
KRAP 301720Z 3018/3118 36014KT P6SM SKC
     FM302000 01013KT P6SM SCT015
     FM302200 05011KT P6SM BKN010
     FM310000 07008KT 1SM BR OVC003
     FM311400 15015KT P6SM OVC005=



000
FTUS43 KUNR 301100
TAFRAP
TAF
KRAP 301120Z 3012/3112 33009KT P6SM SKC
     FM301700 35017KT P6SM SCT050 SCT250
     FM310000 07011KT P6SM BKN250
     FM310400 12005KT P6SM OVC015
     FM310600 14009KT 3SM BR OVC007=



000
FTUS43 KUNR 301100
TAFGCC
TAF
KGCC 301120Z 3012/3112 27010KT P6SM SCT250
     FM301800 35007KT P6SM SCT250
     FM310000 16011KT P6SM SCT250
     FM310900 18020G30KT 4SM BR OVC005=



000
FTUS43 KUNR 300500
TAFRAP
TAF
KRAP 300523Z 3006/3106 31008KT P6SM SKC
     FM301500 01014KT P6SM SCT008=



000
FTUS43 KUNR 300500
TAFGCC
TAF
KGCC 300523Z 3006/3106 28010KT P6SM SKC=



000
FTUS43 KUNR 292300
TAFRAP
TAF
KRAP 292330Z 3000/3024 34015KT P6SM BKN100
     FM300300 34006KT P6SM SCT150
     FM301500 36016KT P6SM SCT040=



000
FTUS43 KUNR 292300
TAFGCC
TAF
KGCC 292330Z 3000/3024 33015KT P6SM BKN100
     FM300300 27008KT P6SM FEW070=



000
FTUS43 KUNR 292000 AAA
TAFRAP
TAF AMD
KRAP 292005Z 2920/3018 35015KT P6SM BKN100
     FM300000 30006KT P6SM SCT100=



000
FTUS43 KUNR 291900 AAA
TAFGCC
TAF AMD
KGCC 291911Z 2919/3018 35015KT P6SM BKN100
     FM300000 27011KT P6SM FEW070=



000
FTUS43 KUNR 291700
TAFGCC
TAF
KGCC 291721Z 2918/3018 31015KT P6SM BKN100
     FM300000 27011KT P6SM FEW070=



000
FTUS43 KUNR 291700
TAFRAP
TAF
KRAP 291721Z 2918/3018 VRB05KT P6SM SCT100
     FM292100 35012KT P6SM BKN100
     FM300000 30006KT P6SM SCT100=



000
FTUS43 KUNR 291100
TAFRAP
TAF
KRAP 291120Z 2912/3012 VRB05KT P6SM SKC
     FM292300 35012KT P6SM BKN120=



000
FTUS43 KUNR 291100
TAFGCC
TAF
KGCC 291120Z 2912/3012 18010KT P6SM SKC
     FM291800 31014KT P6SM BKN100=



000
FTUS43 KUNR 290500
TAFGCC
TAF
KGCC 290520Z 2906/3006 17011KT P6SM SKC
     FM291800 31007KT P6SM SCT100 BKN200
     FM300000 31014KT P6SM BKN100=



000
FTUS43 KUNR 290500
TAFRAP
TAF
KRAP 290520Z 2906/3006 VRB05KT P6SM SKC
     FM292300 36012KT P6SM SCT100 BKN200=



000
FTUS43 KUNR 282300
TAFGCC
TAF
KGCC 282329Z 2900/2924 VRB04KT P6SM SKC
     FM290400 19010KT P6SM SCT200
     FM291800 32011KT P6SM BKN200=



000
FTUS43 KUNR 282300
TAFRAP
TAF
KRAP 282329Z 2900/2924 35012KT P6SM SKC
     FM290200 VRB03KT P6SM SKC
     FM292100 36008KT P6SM BKN200=



    US Dept of Commerce
    National Oceanic and Atmospheric Administration
    National Weather Service
    1325 East West Highway
    Silver Spring, MD 20910
    Page Author: NWS Internet Services Team
Disclaimer
Information Quality
Credits
Glossary
Privacy Policy
Freedom of Information Act (FOIA)
About Us
Career Opportunities